createdAt,value
2023-05-22T00:02:08.281Z,33.78
2023-05-22T00:04:35.405Z,33.69
2023-05-22T00:07:02.158Z,33.77
2023-05-22T00:09:28.887Z,33.86
2023-05-22T00:11:56.816Z,33.96
2023-05-22T00:14:23.606Z,34.03
2023-05-22T00:16:50.498Z,34.28
2023-05-22T00:19:21.117Z,34.30
2023-05-22T00:21:47.946Z,34.41
2023-05-22T00:24:14.670Z,34.58
2023-05-22T00:26:41.491Z,34.40
2023-05-22T00:29:08.449Z,34.21
2023-05-22T00:31:35.296Z,34.46
2023-05-22T00:34:02.114Z,34.24
2023-05-22T00:36:29.086Z,34.35
2023-05-22T00:38:56.224Z,34.20
2023-05-22T00:41:23.036Z,34.31
2023-05-22T00:43:51.515Z,34.11
2023-05-22T00:46:21.698Z,34.35
2023-05-22T00:48:49.239Z,34.22
2023-05-22T00:51:16.071Z,34.25
2023-05-22T00:53:43.504Z,34.62
2023-05-22T00:56:10.350Z,34.78
2023-05-22T00:58:37.715Z,34.81
2023-05-22T01:01:07.097Z,34.38
2023-05-22T01:03:35.813Z,34.33
2023-05-22T01:06:03.157Z,34.56
2023-05-22T01:08:29.910Z,34.81
2023-05-22T01:11:22.397Z,35.20
2023-05-22T01:14:01.196Z,35.66
2023-05-22T01:16:50.429Z,35.77
2023-05-22T01:19:54.313Z,35.04
2023-05-22T01:22:36.142Z,35.41
2023-05-22T01:25:17.110Z,34.89
2023-05-22T01:28:08.001Z,34.73
2023-05-22T01:30:45.891Z,34.90
2023-05-22T01:33:14.870Z,35.03
2023-05-22T01:35:41.865Z,34.67
2023-05-22T01:38:08.660Z,34.97
2023-05-22T01:40:36.701Z,35.06
2023-05-22T01:43:04.271Z,35.03
2023-05-22T01:45:31.842Z,35.01
2023-05-22T01:47:58.917Z,35.30
2023-05-22T01:50:26.581Z,34.76
2023-05-22T01:53:08.761Z,34.89
2023-05-22T01:56:00.990Z,34.96
2023-05-22T01:59:01.728Z,34.48
2023-05-22T02:01:31.500Z,34.42
2023-05-22T02:03:58.292Z,34.50
2023-05-22T02:06:29.175Z,34.53
2023-05-22T02:08:56.127Z,34.36
2023-05-22T02:11:22.994Z,34.54
2023-05-22T02:13:49.894Z,34.50
2023-05-22T02:16:19.418Z,34.55
2023-05-22T02:18:46.667Z,34.76
2023-05-22T02:21:13.424Z,34.44
2023-05-22T02:23:40.616Z,34.60
2023-05-22T02:26:08.410Z,34.51
2023-05-22T02:28:35.870Z,34.67
2023-05-22T02:31:03.819Z,34.57
2023-05-22T02:33:30.991Z,34.85
2023-05-22T02:35:57.771Z,35.44
2023-05-22T02:38:24.568Z,35.17
2023-05-22T02:40:52.137Z,35.36
2023-05-22T02:43:18.975Z,35.51
2023-05-22T02:45:46.001Z,35.42
2023-05-22T02:48:13.317Z,35.33
2023-05-22T02:50:40.512Z,35.01
2023-05-22T02:53:08.590Z,35.26
2023-05-22T02:55:36.054Z,35.16
2023-05-22T02:58:03.419Z,35.21
2023-05-22T03:00:30.533Z,34.92
2023-05-22T03:02:57.466Z,34.27
2023-05-22T03:05:24.358Z,33.79
2023-05-22T03:07:52.918Z,33.63
2023-05-22T03:10:19.869Z,33.73
2023-05-22T03:12:46.672Z,33.56
2023-05-22T03:15:13.862Z,33.43
2023-05-22T03:17:41.076Z,33.40
2023-05-22T03:20:10.623Z,33.27
2023-05-22T03:22:37.481Z,32.79
2023-05-22T03:25:06.466Z,31.77
2023-05-22T03:27:33.354Z,31.35
2023-05-22T03:30:06.121Z,31.06
2023-05-22T03:32:37.563Z,30.65
2023-05-22T03:35:05.759Z,30.29
2023-05-22T03:37:32.563Z,29.91
2023-05-22T03:39:59.940Z,29.09
2023-05-22T03:42:29.657Z,28.55
2023-05-22T03:44:56.695Z,27.70
2023-05-22T03:47:24.318Z,27.02
2023-05-22T03:49:51.696Z,26.65
2023-05-22T03:52:18.480Z,25.72
2023-05-22T03:54:45.467Z,25.87
2023-05-22T03:57:12.281Z,25.36
2023-05-22T03:59:39.145Z,24.80
2023-05-22T04:02:06.018Z,24.44
2023-05-22T04:04:38.540Z,24.02
2023-05-22T04:07:08.352Z,23.72
2023-05-22T04:09:35.575Z,23.23
2023-05-22T04:12:02.675Z,22.58
2023-05-22T04:14:29.539Z,22.31
2023-05-22T04:16:56.320Z,21.97
2023-05-22T04:19:23.561Z,21.79
2023-05-22T04:21:50.407Z,21.64
2023-05-22T04:24:18.481Z,21.32
2023-05-22T04:26:45.302Z,21.19
2023-05-22T04:29:14.603Z,20.92
2023-05-22T04:31:42.224Z,20.95
2023-05-22T04:34:15.327Z,20.54
2023-05-22T04:36:45.332Z,20.42
2023-05-22T04:39:14.060Z,20.25
2023-05-22T04:41:41.185Z,19.85
2023-05-22T04:44:08.263Z,19.62
2023-05-22T04:46:36.118Z,19.69
2023-05-22T04:49:03.397Z,19.41
2023-05-22T04:51:31.429Z,19.15
2023-05-22T04:53:58.549Z,18.91
2023-05-22T04:56:35.342Z,18.45
2023-05-22T04:59:05.685Z,18.07
2023-05-22T05:01:35.207Z,18.07
2023-05-22T05:04:03.249Z,18.06
2023-05-22T05:06:30.274Z,18.12
2023-05-22T05:08:57.205Z,18.01
2023-05-22T05:11:24.434Z,17.67
2023-05-22T05:13:51.240Z,17.63
2023-05-22T05:16:19.464Z,17.62
2023-05-22T05:18:46.329Z,17.18
2023-05-22T05:21:13.136Z,17.06
2023-05-22T05:23:40.000Z,17.27
2023-05-22T05:26:10.010Z,17.58
2023-05-22T05:28:37.415Z,17.21
2023-05-22T05:31:05.583Z,17.20
2023-05-22T05:34:08.049Z,17.53
2023-05-22T05:36:52.571Z,17.20
2023-05-22T05:39:22.304Z,17.31
2023-05-22T05:41:50.016Z,17.54
2023-05-22T05:44:16.868Z,17.47
2023-05-22T05:46:43.777Z,17.32
2023-05-22T05:49:16.576Z,17.32
2023-05-22T05:51:43.480Z,17.12
2023-05-22T05:54:11.365Z,16.84
2023-05-22T05:56:38.847Z,17.03
2023-05-22T05:59:05.961Z,17.01
2023-05-22T06:01:39.908Z,17.15
2023-05-22T06:04:10.322Z,17.33
2023-05-22T06:06:39.322Z,16.99
2023-05-22T06:09:15.123Z,16.73
2023-05-22T06:12:12.966Z,16.78
2023-05-22T06:14:41.461Z,16.67
2023-05-22T06:17:11.178Z,16.42
2023-05-22T06:19:39.504Z,16.24
2023-05-22T06:22:06.505Z,15.98
2023-05-22T06:24:33.937Z,16.08
2023-05-22T06:27:05.706Z,15.68
2023-05-22T06:29:32.447Z,15.34
2023-05-22T06:31:59.332Z,15.58
2023-05-22T06:34:27.702Z,15.15
2023-05-22T06:36:56.419Z,15.00
2023-05-22T06:39:25.163Z,15.08
2023-05-22T06:42:06.782Z,15.10
2023-05-22T06:44:53.934Z,15.03
2023-05-22T06:47:21.157Z,15.20
2023-05-22T06:49:47.932Z,15.02
2023-05-22T06:52:15.449Z,14.76
2023-05-22T06:54:43.997Z,15.01
2023-05-22T06:57:11.924Z,15.40
2023-05-22T06:59:38.950Z,15.42
2023-05-22T07:02:07.128Z,15.15
2023-05-22T07:04:52.524Z,14.75
2023-05-22T07:07:36.575Z,14.60
2023-05-22T07:10:03.612Z,14.83
2023-05-22T07:12:31.651Z,15.07
2023-05-22T07:15:00.385Z,14.94
2023-05-22T07:17:28.231Z,14.61
2023-05-22T07:19:56.365Z,14.12
2023-05-22T07:22:23.493Z,14.10
2023-05-22T07:24:50.547Z,14.43
2023-05-22T07:27:18.015Z,14.29
2023-05-22T07:29:46.030Z,14.19
2023-05-22T07:32:12.844Z,14.50
2023-05-22T07:34:41.552Z,14.63
2023-05-22T07:37:09.175Z,15.04
2023-05-22T07:39:36.252Z,14.60
2023-05-22T07:43:12.678Z,16.31
2023-05-22T07:45:40.526Z,15.28
2023-05-22T07:48:09.237Z,15.30
2023-05-22T07:50:36.276Z,15.31
2023-05-22T07:53:04.619Z,15.08
2023-05-22T07:55:32.581Z,14.38
2023-05-22T07:57:59.676Z,14.30
2023-05-22T08:00:32.429Z,14.04
2023-05-22T08:02:59.411Z,14.36
2023-05-22T08:05:26.690Z,14.19
2023-05-22T08:07:55.006Z,13.85
2023-05-22T08:10:22.017Z,13.66
2023-05-22T08:12:48.769Z,13.80
2023-05-22T08:15:15.633Z,13.78
2023-05-22T08:17:42.434Z,13.55
2023-05-22T08:20:10.327Z,13.30
2023-05-22T08:22:39.021Z,12.78
2023-05-22T08:25:06.456Z,12.75
2023-05-22T08:27:33.206Z,12.79
2023-05-22T08:30:00.172Z,12.67
2023-05-22T08:32:28.633Z,12.69
2023-05-22T08:34:56.653Z,12.93
2023-05-22T08:37:23.423Z,13.24
2023-05-22T08:39:50.308Z,13.02
2023-05-22T08:42:17.048Z,12.51
2023-05-22T08:44:43.831Z,12.15
2023-05-22T08:47:11.275Z,11.93
2023-05-22T08:49:38.949Z,11.55
2023-05-22T08:52:21.809Z,11.72
2023-05-22T08:54:53.223Z,12.00
2023-05-22T08:57:20.611Z,11.90
2023-05-22T08:59:47.424Z,11.49
2023-05-22T09:02:14.274Z,11.29
2023-05-22T09:04:41.568Z,10.98
2023-05-22T09:07:09.220Z,11.39
2023-05-22T09:09:39.164Z,11.68
2023-05-22T09:12:09.148Z,12.15
2023-05-22T09:14:41.036Z,12.14
2023-05-22T09:17:09.563Z,11.99
2023-05-22T09:19:36.515Z,12.40
2023-05-22T09:22:05.030Z,12.03
2023-05-22T09:24:32.462Z,11.68
2023-05-22T09:27:03.330Z,11.49
2023-05-22T09:29:30.211Z,11.55
2023-05-22T09:31:59.565Z,11.44
2023-05-22T09:34:30.698Z,10.98
2023-05-22T09:37:06.531Z,10.96
2023-05-22T09:39:43.436Z,11.18
2023-05-22T09:42:12.873Z,11.38
2023-05-22T09:44:39.586Z,11.71
2023-05-22T09:47:06.644Z,11.91
2023-05-22T09:49:42.763Z,12.08
2023-05-22T09:52:10.108Z,12.09
2023-05-22T09:54:37.220Z,11.97
2023-05-22T09:57:04.652Z,11.57
2023-05-22T09:59:33.187Z,11.42
2023-05-22T10:02:02.499Z,11.28
2023-05-22T10:04:30.730Z,11.05
2023-05-22T10:06:57.590Z,11.17
2023-05-22T10:09:26.297Z,11.55
2023-05-22T10:11:54.151Z,11.62
2023-05-22T10:14:20.988Z,11.64
2023-05-22T10:16:47.844Z,11.63
2023-05-22T10:19:14.646Z,11.69
2023-05-22T10:21:41.531Z,11.57
2023-05-22T10:24:08.339Z,11.37
2023-05-22T10:26:35.167Z,11.10
2023-05-22T10:29:13.931Z,10.95
2023-05-22T10:32:01.067Z,10.95
2023-05-22T10:34:38.930Z,10.70
2023-05-22T10:37:27.106Z,10.49
2023-05-22T10:40:12.053Z,10.77
2023-05-22T10:42:38.920Z,11.17
2023-05-22T10:45:09.414Z,11.17
2023-05-22T10:47:36.517Z,11.07
2023-05-22T10:50:11.254Z,10.95
2023-05-22T10:52:38.709Z,10.64
2023-05-22T10:55:09.438Z,10.70
2023-05-22T10:57:40.159Z,10.67
2023-05-22T11:00:11.892Z,10.62
2023-05-22T11:02:40.616Z,10.90
2023-05-22T11:05:22.778Z,10.67
2023-05-22T11:07:49.611Z,10.55
2023-05-22T11:10:45.858Z,10.78
2023-05-22T11:13:12.731Z,11.08
2023-05-22T11:15:43.827Z,10.97
2023-05-22T11:18:11.426Z,10.91
2023-05-22T11:20:40.151Z,10.64
2023-05-22T11:23:07.920Z,11.29
2023-05-22T11:25:35.564Z,11.33
2023-05-22T11:28:07.110Z,11.04
2023-05-22T11:30:34.234Z,10.91
2023-05-22T11:33:01.649Z,11.12
2023-05-22T11:35:29.958Z,11.49
2023-05-22T11:37:57.148Z,11.32
2023-05-22T11:40:25.817Z,11.19
2023-05-22T11:42:53.558Z,11.10
2023-05-22T11:45:20.595Z,10.86
2023-05-22T11:47:48.562Z,10.59
2023-05-22T11:50:22.742Z,10.55
2023-05-22T11:52:56.685Z,10.75
2023-05-22T11:55:24.731Z,10.77
2023-05-22T11:57:52.169Z,11.00
2023-05-22T12:00:20.502Z,11.22
2023-05-22T12:02:48.012Z,11.11
2023-05-22T12:05:16.683Z,11.15
2023-05-22T12:07:44.207Z,11.13
2023-05-22T12:10:12.410Z,11.03
2023-05-22T12:12:39.821Z,11.18
2023-05-22T12:15:07.676Z,11.35
2023-05-22T12:17:38.936Z,11.44
2023-05-22T12:20:07.293Z,11.00
2023-05-22T12:22:40.919Z,10.98
2023-05-22T12:25:14.182Z,10.85
2023-05-22T12:27:41.536Z,10.84
2023-05-22T12:30:10.686Z,11.04
2023-05-22T12:32:39.767Z,10.73
2023-05-22T12:35:14.556Z,10.79
2023-05-22T12:37:48.142Z,10.92
2023-05-22T12:40:16.018Z,10.80
2023-05-22T12:42:45.033Z,10.92
2023-05-22T12:45:13.529Z,11.52
2023-05-22T12:47:40.869Z,11.31
2023-05-22T12:50:08.764Z,11.23
2023-05-22T12:52:36.302Z,11.42
2023-05-22T12:55:04.705Z,11.39
2023-05-22T12:57:32.025Z,11.66
2023-05-22T12:59:59.400Z,11.51
2023-05-22T13:02:26.873Z,11.42
2023-05-22T13:04:54.255Z,11.30
2023-05-22T13:07:21.664Z,11.43
2023-05-22T13:09:48.982Z,11.66
2023-05-22T13:12:16.496Z,11.49
2023-05-22T13:14:44.245Z,11.26
2023-05-22T13:17:11.870Z,11.29
2023-05-22T13:19:39.347Z,11.49
2023-05-22T13:22:07.717Z,11.56
2023-05-22T13:24:35.130Z,11.30
2023-05-22T13:27:02.613Z,11.26
2023-05-22T13:29:29.944Z,11.62
2023-05-22T13:31:57.261Z,11.66
2023-05-22T13:34:24.754Z,11.93
2023-05-22T13:36:52.483Z,11.92
2023-05-22T13:39:19.860Z,11.68
2023-05-22T13:41:47.270Z,11.95
2023-05-22T13:44:14.866Z,11.79
2023-05-22T13:46:42.239Z,11.55
2023-05-22T13:49:09.631Z,11.41
2023-05-22T13:51:38.010Z,11.47
2023-05-22T13:54:06.227Z,11.95
2023-05-22T13:56:33.760Z,11.43
2023-05-22T13:59:01.602Z,11.55
2023-05-22T14:01:29.372Z,11.77
2023-05-22T14:03:56.826Z,11.57
2023-05-22T14:06:25.202Z,11.48
2023-05-22T14:08:52.920Z,11.47
2023-05-22T14:11:21.834Z,11.66
2023-05-22T14:13:50.123Z,11.73
2023-05-22T14:16:17.622Z,12.09
2023-05-22T14:18:45.002Z,11.95
2023-05-22T14:21:12.492Z,11.90
2023-05-22T14:23:39.842Z,12.04
2023-05-22T14:26:07.108Z,12.31
2023-05-22T14:28:34.432Z,11.91
2023-05-22T14:31:01.910Z,12.04
2023-05-22T14:33:30.682Z,12.36
2023-05-22T14:35:57.989Z,12.24
2023-05-22T14:38:26.302Z,12.66
2023-05-22T14:40:53.692Z,12.59
2023-05-22T14:43:21.038Z,12.37
2023-05-22T14:45:48.362Z,12.47
2023-05-22T14:48:16.115Z,12.53
2023-05-22T14:50:43.587Z,12.68
2023-05-22T14:53:11.692Z,12.37
2023-05-22T14:55:39.153Z,12.65
2023-05-22T14:58:06.669Z,12.83
2023-05-22T15:00:34.002Z,12.82
2023-05-22T15:03:02.928Z,12.84
2023-05-22T15:05:30.657Z,12.84
2023-05-22T15:07:58.716Z,12.76
2023-05-22T15:10:26.297Z,13.17
2023-05-22T15:12:53.890Z,13.10
2023-05-22T15:15:21.297Z,12.97
2023-05-22T15:17:48.734Z,12.90
2023-05-22T15:20:16.207Z,13.00
2023-05-22T15:22:43.518Z,12.91
2023-05-22T15:25:12.482Z,12.93
2023-05-22T15:27:39.800Z,13.10
2023-05-22T15:30:09.765Z,13.12
2023-05-22T15:32:37.596Z,13.05
2023-05-22T15:35:06.714Z,13.18
2023-05-22T15:37:34.327Z,12.99
2023-05-22T15:40:04.082Z,12.99
2023-05-22T15:42:31.662Z,13.11
2023-05-22T15:45:01.319Z,13.36
2023-05-22T15:47:29.773Z,13.31
2023-05-22T15:49:57.138Z,13.34
2023-05-22T15:52:24.659Z,13.40
2023-05-22T15:54:52.866Z,13.56
2023-05-22T15:57:20.582Z,13.30
2023-05-22T15:59:51.130Z,13.43
2023-05-22T16:02:18.932Z,13.15
2023-05-22T16:04:46.635Z,13.01
2023-05-22T16:07:13.953Z,13.30
2023-05-22T16:09:43.335Z,13.58
2023-05-22T16:12:10.695Z,13.54
2023-05-22T16:14:40.056Z,13.98
2023-05-22T16:17:07.902Z,13.88
2023-05-22T16:19:35.329Z,14.05
2023-05-22T16:22:03.588Z,14.32
2023-05-22T16:24:30.998Z,14.18
2023-05-22T16:26:59.433Z,14.19
2023-05-22T16:29:26.859Z,14.07
2023-05-22T16:31:54.331Z,14.12
2023-05-22T16:34:21.885Z,14.34
2023-05-22T16:36:49.219Z,14.28
2023-05-22T16:39:16.918Z,14.43
2023-05-22T16:41:44.602Z,14.47
2023-05-22T16:44:12.147Z,14.44
2023-05-22T16:46:39.515Z,14.54
2023-05-22T16:49:07.010Z,14.83
2023-05-22T16:51:34.449Z,14.86
2023-05-22T16:54:01.749Z,15.29
2023-05-22T16:56:34.193Z,15.53
2023-05-22T16:59:02.194Z,15.36
2023-05-22T17:01:29.846Z,15.51
2023-05-22T17:03:57.349Z,15.44
2023-05-22T17:06:24.885Z,15.66
2023-05-22T17:08:52.776Z,15.51
2023-05-22T17:11:20.436Z,15.66
2023-05-22T17:13:47.771Z,16.35
2023-05-22T17:16:15.129Z,16.31
2023-05-22T17:18:43.027Z,16.40
2023-05-22T17:21:10.762Z,16.43
2023-05-22T17:23:38.968Z,16.52
2023-05-22T17:26:06.492Z,16.83
2023-05-22T17:28:33.882Z,17.00
2023-05-22T17:31:01.290Z,17.41
2023-05-22T17:33:28.719Z,17.67
2023-05-22T17:35:56.515Z,17.73
2023-05-22T17:38:23.826Z,18.11
2023-05-22T17:40:52.263Z,17.98
2023-05-22T17:43:20.058Z,18.24
2023-05-22T17:45:50.652Z,18.52
2023-05-22T17:48:27.295Z,18.80
2023-05-22T17:50:54.935Z,19.05
2023-05-22T17:53:22.519Z,19.00
2023-05-22T17:55:52.350Z,19.26
2023-05-22T17:58:20.705Z,19.49
2023-05-22T18:00:48.988Z,19.74
2023-05-22T18:03:20.224Z,20.05
2023-05-22T18:05:51.219Z,20.14
2023-05-22T18:08:18.803Z,20.45
2023-05-22T18:10:46.352Z,20.67
2023-05-22T18:13:13.808Z,20.85
2023-05-22T18:15:41.275Z,20.99
2023-05-22T18:18:10.689Z,21.35
2023-05-22T18:20:39.637Z,21.27
2023-05-22T18:23:07.261Z,21.46
2023-05-22T18:25:34.608Z,21.52
2023-05-22T18:28:01.882Z,22.24
2023-05-22T18:30:29.305Z,23.73
2023-05-22T18:32:57.479Z,24.16
2023-05-22T18:35:25.005Z,24.48
2023-05-22T18:37:52.342Z,23.84
2023-05-22T18:40:19.728Z,23.19
2023-05-22T18:42:47.199Z,22.61
2023-05-22T18:45:14.724Z,22.47
2023-05-22T18:47:42.083Z,22.93
2023-05-22T18:50:09.977Z,23.07
2023-05-22T18:52:38.098Z,23.27
2023-05-22T18:55:05.845Z,23.40
2023-05-22T18:57:33.222Z,23.36
2023-05-22T19:00:00.964Z,23.42
2023-05-22T19:02:29.682Z,23.30
2023-05-22T19:04:58.194Z,23.29
2023-05-22T19:07:25.707Z,23.15
2023-05-22T19:09:57.100Z,23.22
2023-05-22T19:12:25.564Z,23.39
2023-05-22T19:14:52.949Z,23.35
2023-05-22T19:17:20.655Z,23.34
2023-05-22T19:19:48.186Z,23.05
2023-05-22T19:22:17.920Z,23.15
2023-05-22T19:24:48.462Z,23.29
2023-05-22T19:27:15.936Z,23.09
2023-05-22T19:29:43.265Z,23.20
2023-05-22T19:32:10.582Z,23.14
2023-05-22T19:34:37.888Z,23.41
2023-05-22T19:37:07.561Z,23.42
2023-05-22T19:39:34.905Z,23.69
2023-05-22T19:42:02.294Z,23.72
2023-05-22T19:44:29.582Z,23.47
2023-05-22T19:46:57.313Z,23.62
2023-05-22T19:49:24.667Z,23.66
2023-05-22T19:51:54.117Z,23.62
2023-05-22T19:54:22.808Z,23.51
2023-05-22T19:56:50.117Z,23.18
2023-05-22T20:00:22.795Z,26.94
2023-05-22T20:02:50.244Z,25.35
2023-05-22T20:05:17.689Z,24.98
2023-05-22T20:07:45.028Z,24.94
2023-05-22T20:10:12.668Z,25.19
2023-05-22T20:12:40.108Z,25.11
2023-05-22T20:15:08.266Z,25.10
2023-05-22T20:17:36.289Z,25.13
2023-05-22T20:20:04.527Z,25.25
2023-05-22T20:22:31.866Z,25.23
2023-05-22T20:25:01.317Z,25.38
2023-05-22T20:27:30.045Z,25.43
2023-05-22T20:29:59.899Z,25.47
2023-05-22T20:32:27.740Z,25.35
2023-05-22T20:34:56.179Z,25.30
2023-05-22T20:37:23.815Z,25.33
2023-05-22T20:39:51.883Z,25.22
2023-05-22T20:42:19.210Z,25.40
2023-05-22T20:44:46.756Z,25.53
2023-05-22T20:47:14.034Z,25.51
2023-05-22T20:49:41.554Z,25.72
2023-05-22T20:52:10.080Z,25.72
2023-05-22T20:54:37.561Z,25.79
2023-05-22T20:57:05.541Z,25.92
2023-05-22T20:59:32.902Z,25.69
2023-05-22T21:02:01.350Z,25.66
2023-05-22T21:04:28.817Z,25.65
2023-05-22T21:06:56.475Z,25.53
2023-05-22T21:09:23.873Z,25.43
2023-05-22T21:11:51.128Z,25.65
2023-05-22T21:14:18.454Z,25.56
2023-05-22T21:16:45.780Z,25.71
2023-05-22T21:19:13.136Z,25.64
2023-05-22T21:21:41.887Z,25.57
2023-05-22T21:24:12.263Z,25.87
2023-05-22T21:26:40.807Z,25.90
2023-05-22T21:29:08.123Z,25.74
2023-05-22T21:31:35.804Z,25.64
2023-05-22T21:34:03.418Z,25.75
2023-05-22T21:36:31.874Z,26.28
2023-05-22T21:39:00.625Z,25.99
2023-05-22T21:41:28.052Z,25.72
2023-05-22T21:43:55.442Z,25.57
2023-05-22T21:46:22.761Z,25.81
2023-05-22T21:48:50.267Z,25.92
2023-05-22T21:51:17.617Z,25.74
2023-05-22T21:53:45.518Z,26.02
2023-05-22T21:56:12.780Z,25.86
2023-05-22T21:58:40.185Z,26.06
2023-05-22T22:01:07.740Z,26.44
2023-05-22T22:03:35.251Z,26.69
2023-05-22T22:06:02.617Z,26.66
2023-05-22T22:08:30.117Z,26.70
2023-05-22T22:10:58.423Z,26.90
2023-05-22T22:13:25.718Z,26.69
2023-05-22T22:15:53.575Z,26.54
2023-05-22T22:18:20.993Z,26.52
2023-05-22T22:20:54.173Z,26.40
2023-05-22T22:23:22.047Z,26.55
2023-05-22T22:25:49.833Z,26.77
2023-05-22T22:28:17.267Z,26.86
2023-05-22T22:30:44.602Z,26.72
2023-05-22T22:33:11.985Z,26.71
2023-05-22T22:35:40.615Z,26.72
2023-05-22T22:38:08.201Z,26.85
2023-05-22T22:40:35.502Z,26.80
2023-05-22T22:43:03.797Z,26.93
2023-05-22T22:45:31.442Z,27.08
2023-05-22T22:48:00.682Z,27.30
2023-05-22T22:50:28.346Z,27.27
2023-05-22T22:52:55.723Z,27.33
2023-05-22T22:55:23.178Z,27.53
2023-05-22T22:57:51.090Z,27.55
2023-05-22T23:00:19.348Z,27.57
2023-05-22T23:02:46.946Z,27.64
2023-05-22T23:05:15.015Z,27.78
2023-05-22T23:07:44.405Z,27.89
2023-05-22T23:10:17.186Z,27.80
2023-05-22T23:12:44.689Z,29.93
2023-05-22T23:15:13.459Z,30.88
2023-05-22T23:17:41.460Z,31.34
2023-05-22T23:20:10.328Z,31.27
2023-05-22T23:22:37.807Z,31.30
2023-05-22T23:25:05.638Z,31.28
2023-05-22T23:27:35.204Z,31.29
2023-05-22T23:30:06.378Z,32.11
2023-05-22T23:32:33.764Z,31.23
2023-05-22T23:35:01.089Z,31.00
2023-05-22T23:37:28.379Z,31.01
2023-05-22T23:39:55.688Z,31.50
2023-05-22T23:42:23.197Z,32.07
2023-05-22T23:44:50.534Z,31.73
2023-05-22T23:47:18.830Z,31.30
2023-05-22T23:49:46.134Z,31.45
2023-05-22T23:52:13.640Z,32.08
2023-05-22T23:54:40.851Z,31.89
2023-05-22T23:57:08.463Z,30.37
2023-05-22T23:59:35.744Z,29.99
